createdAt,value
2023-01-21T00:01:44.737Z,1.60
2023-01-21T00:04:12.060Z,1.60
2023-01-21T00:06:39.306Z,1.60
2023-01-21T00:09:06.640Z,1.60
2023-01-21T00:11:33.868Z,1.60
2023-01-21T00:14:03.377Z,1.70
2023-01-21T00:16:32.753Z,1.70
2023-01-21T00:19:00.029Z,1.80
2023-01-21T00:21:29.554Z,1.70
2023-01-21T00:23:56.811Z,1.80
2023-01-21T00:26:24.093Z,1.90
2023-01-21T00:28:53.660Z,1.80
2023-01-21T00:31:23.396Z,1.80
2023-01-21T00:33:50.712Z,1.80
2023-01-21T00:36:18.610Z,1.70
2023-01-21T00:38:51.518Z,1.80
2023-01-21T00:41:18.788Z,1.60
2023-01-21T00:43:48.628Z,1.50
2023-01-21T00:46:16.431Z,1.50
2023-01-21T00:48:44.015Z,1.50
2023-01-21T00:51:11.804Z,1.40
2023-01-21T00:53:43.257Z,1.30
2023-01-21T00:56:12.576Z,1.30
2023-01-21T00:58:48.472Z,1.10
2023-01-21T01:01:21.622Z,1.10
2023-01-21T01:03:50.009Z,1.10
2023-01-21T01:06:23.084Z,1.00
2023-01-21T01:08:54.266Z,1.00
2023-01-21T01:11:22.253Z,1.10
2023-01-21T01:13:49.504Z,1.10
2023-01-21T01:16:17.267Z,1.00
2023-01-21T01:18:44.984Z,1.10
2023-01-21T01:21:16.999Z,1.10
2023-01-21T01:23:50.756Z,1.10
2023-01-21T01:26:20.027Z,1.20
2023-01-21T01:28:47.791Z,1.20
2023-01-21T01:31:17.218Z,1.00
2023-01-21T01:33:47.543Z,1.00
2023-01-21T01:36:20.577Z,1.00
2023-01-21T01:38:47.812Z,0.90
2023-01-21T01:41:18.372Z,0.90
2023-01-21T01:44:01.150Z,0.80
2023-01-21T01:46:38.905Z,0.70
2023-01-21T01:49:16.857Z,0.70
2023-01-21T01:51:57.503Z,0.60
2023-01-21T01:54:29.596Z,0.60
2023-01-21T01:57:00.244Z,0.60
2023-01-21T01:59:29.163Z,0.60
2023-01-21T02:02:01.886Z,0.70
2023-01-21T02:04:33.482Z,0.70
2023-01-21T02:07:00.796Z,0.70
2023-01-21T02:09:32.655Z,0.70
2023-01-21T02:12:02.260Z,0.60
2023-01-21T02:14:33.997Z,0.60
2023-01-21T02:17:29.751Z,0.60
2023-01-21T02:20:15.100Z,0.70
2023-01-21T02:22:48.397Z,0.60
2023-01-21T02:25:34.338Z,0.50
2023-01-21T02:28:19.528Z,0.50
2023-01-21T02:31:12.726Z,0.50
2023-01-21T02:33:50.141Z,0.50
2023-01-21T02:36:41.894Z,0.50
2023-01-21T02:39:23.720Z,0.30
2023-01-21T02:42:10.128Z,0.30
2023-01-21T02:44:44.187Z,0.40
2023-01-21T02:47:32.415Z,0.50
2023-01-21T02:50:24.972Z,0.40
2023-01-21T02:53:00.277Z,0.40
2023-01-21T02:55:34.986Z,0.40
2023-01-21T02:58:14.119Z,0.40
2023-01-21T03:00:50.410Z,0.50
2023-01-21T03:03:52.287Z,0.60
2023-01-21T03:06:30.147Z,0.70
2023-01-21T03:09:10.945Z,0.70
2023-01-21T03:11:40.823Z,0.70
2023-01-21T03:14:42.390Z,0.70
2023-01-21T03:17:46.866Z,0.80
2023-01-21T03:20:29.050Z,0.70
2023-01-21T03:23:09.820Z,0.70
2023-01-21T03:25:41.113Z,0.60
2023-01-21T03:28:13.096Z,0.70
2023-01-21T03:30:45.526Z,0.70
2023-01-21T03:33:14.623Z,0.70
2023-01-21T03:35:45.530Z,0.70
2023-01-21T03:38:22.787Z,0.60
2023-01-21T03:41:10.955Z,0.60
2023-01-21T03:43:42.961Z,0.60
2023-01-21T03:46:19.630Z,0.60
2023-01-21T03:48:54.899Z,0.50
2023-01-21T03:51:27.700Z,0.60
2023-01-21T03:53:59.534Z,0.60
2023-01-21T03:56:27.770Z,0.60
2023-01-21T03:58:55.235Z,0.60
2023-01-21T04:01:22.804Z,0.60
2023-01-21T04:03:54.812Z,0.60
2023-01-21T04:06:24.504Z,0.60
2023-01-21T04:08:51.753Z,0.50
2023-01-21T04:11:19.063Z,0.40
2023-01-21T04:13:46.293Z,0.40
2023-01-21T04:16:13.648Z,0.40
2023-01-21T04:18:40.889Z,0.30
2023-01-21T04:21:08.318Z,0.20
2023-01-21T04:23:40.165Z,0.20
2023-01-21T04:26:07.790Z,0.20
2023-01-21T04:28:35.044Z,0.20
2023-01-21T04:31:04.882Z,0.20
2023-01-21T04:33:34.646Z,0.10
2023-01-21T04:36:01.913Z,0.10
2023-01-21T04:38:34.201Z,0.10
2023-01-21T04:41:01.498Z,0.10
2023-01-21T04:43:28.783Z,0.10
2023-01-21T04:45:56.213Z,0.20
2023-01-21T04:48:26.142Z,0.10
2023-01-21T04:50:53.393Z,0.10
2023-01-21T04:53:20.730Z,0.00
2023-01-21T04:55:50.564Z,0.00
2023-01-21T04:58:18.026Z,0.00
2023-01-21T05:00:47.411Z,0.00
2023-01-21T05:03:17.846Z,0.00
2023-01-21T05:05:45.153Z,0.00
2023-01-21T05:08:15.433Z,0.00
2023-01-21T05:10:45.521Z,0.00
2023-01-21T05:13:13.110Z,0.00
2023-01-21T05:15:42.622Z,0.00
2023-01-21T05:18:09.967Z,-0.10
2023-01-21T05:20:37.209Z,-0.10
2023-01-21T05:23:04.455Z,-0.10
2023-01-21T05:25:31.707Z,-0.10
2023-01-21T05:27:58.953Z,-0.10
2023-01-21T05:30:26.374Z,0.00
2023-01-21T05:32:54.970Z,0.00
2023-01-21T05:35:25.560Z,-0.10
2023-01-21T05:37:52.825Z,-0.10
2023-01-21T05:40:20.486Z,-0.10
2023-01-21T05:42:47.929Z,-0.10
2023-01-21T05:45:17.819Z,-0.10
2023-01-21T05:47:45.180Z,-0.10
2023-01-21T05:50:13.123Z,-0.10
2023-01-21T05:52:40.641Z,-0.20
2023-01-21T05:55:08.527Z,-0.20
2023-01-21T05:57:35.844Z,-0.30
2023-01-21T06:00:03.405Z,-0.30
2023-01-21T06:02:30.891Z,-0.30
2023-01-21T06:04:58.140Z,-0.40
2023-01-21T06:07:25.401Z,-0.30
2023-01-21T06:09:52.709Z,-0.40
2023-01-21T06:12:23.882Z,-0.30
2023-01-21T06:14:52.043Z,-0.30
2023-01-21T06:17:21.621Z,-0.20
2023-01-21T06:19:48.972Z,-0.30
2023-01-21T06:22:21.877Z,-0.20
2023-01-21T06:24:51.222Z,-0.20
2023-01-21T06:27:20.959Z,-0.20
2023-01-21T06:29:48.266Z,-0.20
2023-01-21T06:32:15.550Z,-0.30
2023-01-21T06:34:45.177Z,-0.30
2023-01-21T06:37:13.828Z,-0.20
2023-01-21T06:39:41.358Z,-0.20
2023-01-21T06:42:10.726Z,-0.20
2023-01-21T06:44:37.966Z,-0.20
2023-01-21T06:47:05.380Z,-0.30
2023-01-21T06:49:37.495Z,-0.20
2023-01-21T06:52:05.265Z,-0.10
2023-01-21T06:54:32.757Z,-0.20
2023-01-21T06:57:02.125Z,-0.20
2023-01-21T06:59:29.513Z,-0.20
2023-01-21T07:01:59.084Z,-0.30
2023-01-21T07:04:27.321Z,-0.30
2023-01-21T07:06:54.761Z,-0.30
2023-01-21T07:09:22.320Z,-0.30
2023-01-21T07:11:52.030Z,-0.30
2023-01-21T07:14:19.323Z,-0.30
2023-01-21T07:16:48.673Z,-0.20
2023-01-21T07:19:15.894Z,-0.40
2023-01-21T07:21:43.188Z,-0.40
2023-01-21T07:24:10.504Z,-0.30
2023-01-21T07:26:41.497Z,-0.20
2023-01-21T07:29:11.291Z,-0.20
2023-01-21T07:31:38.699Z,-0.20
2023-01-21T07:34:06.367Z,-0.10
2023-01-21T07:36:36.099Z,-0.10
2023-01-21T07:39:07.840Z,0.00
2023-01-21T07:41:39.856Z,0.10
2023-01-21T07:44:09.729Z,0.20
2023-01-21T07:46:38.418Z,0.20
2023-01-21T07:49:05.740Z,0.20
2023-01-21T07:51:35.173Z,0.30
2023-01-21T07:54:02.399Z,0.30
2023-01-21T07:56:29.685Z,0.30
2023-01-21T07:59:01.366Z,0.20
2023-01-21T08:01:31.474Z,0.30
2023-01-21T08:03:59.668Z,0.30
2023-01-21T08:06:27.037Z,0.30
2023-01-21T08:08:54.355Z,0.30
2023-01-21T08:11:21.666Z,0.40
2023-01-21T08:13:51.400Z,0.50
2023-01-21T08:16:18.781Z,0.40
2023-01-21T08:18:46.092Z,0.60
2023-01-21T08:21:15.537Z,0.60
2023-01-21T08:23:42.855Z,0.60
2023-01-21T08:26:12.355Z,0.80
2023-01-21T08:28:41.845Z,1.00
2023-01-21T08:31:15.510Z,1.20
2023-01-21T08:33:48.311Z,1.20
2023-01-21T08:36:20.269Z,1.30
2023-01-21T08:38:52.460Z,1.40
2023-01-21T08:41:19.801Z,1.40
2023-01-21T08:43:49.399Z,1.40
2023-01-21T08:46:16.638Z,1.50
2023-01-21T08:48:46.384Z,1.60
2023-01-21T08:51:13.762Z,1.70
2023-01-21T08:53:41.035Z,1.80
2023-01-21T08:56:12.907Z,1.80
2023-01-21T08:58:42.669Z,1.80
2023-01-21T09:01:12.435Z,2.00
2023-01-21T09:03:42.187Z,2.00
2023-01-21T09:06:11.959Z,2.10
2023-01-21T09:08:42.152Z,2.10
2023-01-21T09:11:10.236Z,2.10
2023-01-21T09:13:39.193Z,2.10
2023-01-21T09:16:12.432Z,2.30
2023-01-21T09:18:42.279Z,2.40
2023-01-21T09:21:11.007Z,2.70
2023-01-21T09:23:41.202Z,3.20
2023-01-21T09:26:22.319Z,3.50
2023-01-21T09:28:57.278Z,3.50
2023-01-21T09:31:26.472Z,3.80
2023-01-21T09:33:58.019Z,3.80
2023-01-21T09:36:32.207Z,3.90
2023-01-21T09:38:59.837Z,4.20
2023-01-21T09:41:51.395Z,4.60
2023-01-21T09:44:37.833Z,4.90
2023-01-21T09:47:24.810Z,5.40
2023-01-21T09:50:07.964Z,5.60
2023-01-21T09:52:41.213Z,5.70
2023-01-21T09:55:35.501Z,5.60
2023-01-21T09:58:16.349Z,6.30
2023-01-21T10:01:08.566Z,6.40
2023-01-21T10:03:50.338Z,6.20
2023-01-21T10:06:30.227Z,6.00
2023-01-21T10:09:21.554Z,5.90
2023-01-21T10:12:07.064Z,6.20
2023-01-21T10:14:39.732Z,6.20
2023-01-21T10:17:39.118Z,5.80
2023-01-21T10:20:12.706Z,5.90
2023-01-21T10:22:48.125Z,5.90
2023-01-21T10:25:22.975Z,5.80
2023-01-21T10:27:52.393Z,5.80
2023-01-21T10:30:26.614Z,6.20
2023-01-21T10:32:58.419Z,6.50
2023-01-21T10:35:56.467Z,7.10
2023-01-21T10:38:23.774Z,7.80
2023-01-21T10:41:17.530Z,7.70
2023-01-21T10:43:53.454Z,7.60
2023-01-21T10:47:01.979Z,8.30
2023-01-21T10:49:44.373Z,7.90
2023-01-21T10:52:48.312Z,7.70
2023-01-21T10:55:24.075Z,7.30
2023-01-21T10:58:03.615Z,7.30
2023-01-21T11:00:40.648Z,7.70
2023-01-21T11:03:41.446Z,7.60
2023-01-21T11:06:13.727Z,8.20
2023-01-21T11:08:46.687Z,8.50
2023-01-21T11:11:20.795Z,8.50
2023-01-21T11:13:48.049Z,8.10
2023-01-21T11:16:36.188Z,8.20
2023-01-21T11:19:06.472Z,8.40
2023-01-21T11:21:34.242Z,8.20
2023-01-21T11:24:06.199Z,8.50
2023-01-21T11:26:48.793Z,8.10
2023-01-21T11:29:18.210Z,7.50
2023-01-21T11:31:49.048Z,6.40
2023-01-21T11:34:23.522Z,6.00
2023-01-21T11:37:21.969Z,6.00
2023-01-21T11:39:56.726Z,5.70
2023-01-21T11:42:24.801Z,5.20
2023-01-21T11:45:26.615Z,4.80
2023-01-21T11:47:54.218Z,4.70
2023-01-21T11:50:37.746Z,4.40
2023-01-21T11:53:08.029Z,4.20
2023-01-21T11:55:59.618Z,3.40
2023-01-21T11:58:31.435Z,2.80
2023-01-21T12:01:01.699Z,2.80
2023-01-21T12:03:45.727Z,2.60
2023-01-21T12:06:44.962Z,2.60
2023-01-21T12:09:18.263Z,2.50
2023-01-21T12:11:48.757Z,2.60
2023-01-21T12:14:18.893Z,2.30
2023-01-21T12:17:06.334Z,2.20
2023-01-21T12:19:36.428Z,2.20
2023-01-21T12:22:22.359Z,2.20
2023-01-21T12:25:13.713Z,1.90
2023-01-21T12:27:53.084Z,1.90
2023-01-21T12:30:23.151Z,1.80
2023-01-21T12:33:22.597Z,1.80
2023-01-21T12:35:55.002Z,1.70
2023-01-21T12:38:46.953Z,1.60
2023-01-21T12:41:30.841Z,1.50
2023-01-21T12:44:20.110Z,1.60
2023-01-21T12:46:54.162Z,1.50
2023-01-21T12:49:29.297Z,1.60
2023-01-21T12:52:05.427Z,1.70
2023-01-21T12:55:01.736Z,1.60
2023-01-21T12:57:53.625Z,1.60
2023-01-21T13:00:34.799Z,1.60
2023-01-21T13:03:31.369Z,1.50
2023-01-21T13:06:14.781Z,1.60
2023-01-21T13:08:50.004Z,1.80
2023-01-21T13:11:26.157Z,2.00
2023-01-21T13:14:07.663Z,2.00
2023-01-21T13:16:52.898Z,2.20
2023-01-21T13:19:20.427Z,2.20
2023-01-21T13:22:18.392Z,2.10
2023-01-21T13:25:04.871Z,1.90
2023-01-21T13:27:56.085Z,2.00
2023-01-21T13:30:29.289Z,2.10
2023-01-21T13:33:05.937Z,2.20
2023-01-21T13:35:52.281Z,2.30
2023-01-21T13:38:34.947Z,2.40
2023-01-21T13:41:04.627Z,2.40
2023-01-21T13:44:14.105Z,2.30
2023-01-21T13:47:09.074Z,2.30
2023-01-21T13:49:55.680Z,2.60
2023-01-21T13:52:54.256Z,2.80
2023-01-21T13:55:30.717Z,3.00
2023-01-21T13:58:03.973Z,3.20
2023-01-21T14:00:37.015Z,3.50
2023-01-21T14:03:28.562Z,3.60
2023-01-21T14:06:21.522Z,3.90
2023-01-21T14:09:00.937Z,4.00
2023-01-21T14:11:48.319Z,4.20
2023-01-21T14:14:45.819Z,4.20
2023-01-21T14:18:00.867Z,4.20
2023-01-21T14:20:52.242Z,4.20
2023-01-21T14:23:44.894Z,4.90
2023-01-21T14:26:43.539Z,5.80
2023-01-21T14:29:25.595Z,6.40
2023-01-21T14:31:58.394Z,6.80
2023-01-21T14:34:33.551Z,6.80
2023-01-21T14:37:42.172Z,6.60
2023-01-21T14:40:36.111Z,6.30
2023-01-21T14:43:08.536Z,5.70
2023-01-21T14:46:27.243Z,5.40
2023-01-21T14:49:12.059Z,5.10
2023-01-21T14:51:49.675Z,4.80
2023-01-21T14:54:23.375Z,4.50
2023-01-21T14:57:17.375Z,4.20
2023-01-21T14:59:49.456Z,3.90
2023-01-21T15:02:27.196Z,4.00
2023-01-21T15:05:04.522Z,4.10
2023-01-21T15:07:39.151Z,4.00
2023-01-21T15:10:16.477Z,3.90
2023-01-21T15:12:55.253Z,3.70
2023-01-21T15:15:36.945Z,3.60
2023-01-21T15:18:27.695Z,3.50
2023-01-21T15:20:58.652Z,3.60
2023-01-21T15:23:35.790Z,3.70
2023-01-21T15:26:19.298Z,3.90
2023-01-21T15:28:52.197Z,4.20
2023-01-21T15:31:23.674Z,4.40
2023-01-21T15:34:02.925Z,4.50
2023-01-21T15:36:32.757Z,4.70
2023-01-21T15:39:12.247Z,4.80
2023-01-21T15:42:16.195Z,4.70
2023-01-21T15:45:02.943Z,4.50
2023-01-21T15:47:52.111Z,4.80
2023-01-21T15:50:30.151Z,4.80
2023-01-21T15:53:22.033Z,4.90
2023-01-21T15:56:10.828Z,4.80
2023-01-21T15:59:10.221Z,4.80
2023-01-21T16:01:41.371Z,4.80
2023-01-21T16:04:35.863Z,4.70
2023-01-21T16:07:18.017Z,4.60
2023-01-21T16:09:55.253Z,4.40
2023-01-21T16:12:40.519Z,4.30
2023-01-21T16:15:32.453Z,4.40
2023-01-21T16:18:33.612Z,4.30
2023-01-21T16:21:02.910Z,4.30
2023-01-21T16:23:35.899Z,4.40
2023-01-21T16:26:06.178Z,4.30
2023-01-21T16:28:45.713Z,4.10
2023-01-21T16:31:13.125Z,3.90
2023-01-21T16:33:40.723Z,3.90
2023-01-21T16:36:14.243Z,3.80
2023-01-21T16:38:43.831Z,3.90
2023-01-21T16:41:11.059Z,3.80
2023-01-21T16:43:52.515Z,3.70
2023-01-21T16:46:34.920Z,3.60
2023-01-21T16:49:04.875Z,3.60
2023-01-21T16:51:35.676Z,3.60
2023-01-21T16:54:30.899Z,3.60
2023-01-21T16:57:01.002Z,3.40
2023-01-21T16:59:29.672Z,3.50
2023-01-21T17:02:00.273Z,3.40
2023-01-21T17:04:28.614Z,3.30
2023-01-21T17:06:56.544Z,3.30
2023-01-21T17:09:38.833Z,3.30
2023-01-21T17:12:08.847Z,3.20
2023-01-21T17:14:37.517Z,3.20
2023-01-21T17:17:07.978Z,3.20
2023-01-21T17:19:42.035Z,3.30
2023-01-21T17:22:18.586Z,3.30
2023-01-21T17:25:04.440Z,3.30
2023-01-21T17:27:33.302Z,3.30
2023-01-21T17:30:30.700Z,3.40
2023-01-21T17:33:02.526Z,3.30
2023-01-21T17:35:33.554Z,3.30
2023-01-21T17:38:03.183Z,3.40
2023-01-21T17:40:51.654Z,3.30
2023-01-21T17:43:24.455Z,3.40
2023-01-21T17:45:58.940Z,3.50
2023-01-21T17:48:33.481Z,3.50
2023-01-21T17:51:14.593Z,3.60
2023-01-21T17:53:49.318Z,3.50
2023-01-21T17:56:36.122Z,3.40
2023-01-21T17:59:03.609Z,3.50
2023-01-21T18:01:31.349Z,3.50
2023-01-21T18:04:01.019Z,3.60
2023-01-21T18:06:33.830Z,3.50
2023-01-21T18:09:04.297Z,3.40
2023-01-21T18:11:31.582Z,3.60
2023-01-21T18:14:01.526Z,3.60
2023-01-21T18:16:28.887Z,3.30
2023-01-21T18:18:56.347Z,3.30
2023-01-21T18:21:23.737Z,3.30
2023-01-21T18:23:51.281Z,3.50
2023-01-21T18:26:28.722Z,3.40
2023-01-21T18:28:58.693Z,3.10
2023-01-21T18:31:26.132Z,3.00
2023-01-21T18:33:53.548Z,3.20
2023-01-21T18:36:23.087Z,3.30
2023-01-21T18:38:50.377Z,3.10
2023-01-21T18:41:17.644Z,3.20
2023-01-21T18:43:44.982Z,3.30
2023-01-21T18:46:16.368Z,3.50
2023-01-21T18:48:43.829Z,3.50
2023-01-21T18:51:13.297Z,3.60
2023-01-21T18:53:40.618Z,3.60
2023-01-21T18:56:12.752Z,3.60
2023-01-21T18:58:40.193Z,3.70
2023-01-21T19:01:21.047Z,3.70
2023-01-21T19:03:52.493Z,3.50
2023-01-21T19:06:21.929Z,3.50
2023-01-21T19:08:51.620Z,3.50
2023-01-21T19:11:19.009Z,3.60
2023-01-21T19:13:46.448Z,3.40
2023-01-21T19:16:16.911Z,3.30
2023-01-21T19:18:44.508Z,3.20
2023-01-21T19:21:12.480Z,2.80
2023-01-21T19:23:42.254Z,2.80
2023-01-21T19:26:14.566Z,2.60
2023-01-21T19:28:42.233Z,2.60
2023-01-21T19:31:09.627Z,2.80
2023-01-21T19:33:36.964Z,3.00
2023-01-21T19:36:15.981Z,2.90
2023-01-21T19:38:58.751Z,3.00
2023-01-21T19:41:26.108Z,2.80
2023-01-21T19:43:55.704Z,2.50
2023-01-21T19:46:23.900Z,2.30
2023-01-21T19:48:53.558Z,2.30
2023-01-21T19:51:23.356Z,2.30
2023-01-21T19:53:50.657Z,2.20
2023-01-21T19:56:23.706Z,2.30
2023-01-21T19:58:51.258Z,2.30
2023-01-21T20:01:20.978Z,2.30
2023-01-21T20:03:59.692Z,2.30
2023-01-21T20:06:30.065Z,2.30
2023-01-21T20:09:00.241Z,2.40
2023-01-21T20:11:27.675Z,2.60
2023-01-21T20:13:57.043Z,2.50
2023-01-21T20:16:27.350Z,2.30
2023-01-21T20:18:56.167Z,2.20
2023-01-21T20:21:25.678Z,2.30
2023-01-21T20:23:55.051Z,2.20
2023-01-21T20:26:27.274Z,2.10
2023-01-21T20:28:54.689Z,2.10
2023-01-21T20:31:22.157Z,2.20
2023-01-21T20:33:51.849Z,2.10
2023-01-21T20:36:25.904Z,2.10
2023-01-21T20:38:54.367Z,2.10
2023-01-21T20:41:21.853Z,2.30
2023-01-21T20:43:49.116Z,2.40
2023-01-21T20:46:25.322Z,2.50
2023-01-21T20:48:52.829Z,2.30
2023-01-21T20:51:22.919Z,2.50
2023-01-21T20:53:52.695Z,2.50
2023-01-21T20:56:27.932Z,2.40
2023-01-21T20:58:55.197Z,2.10
2023-01-21T21:01:26.719Z,2.10
2023-01-21T21:03:54.009Z,2.10
2023-01-21T21:06:29.042Z,2.00
2023-01-21T21:08:58.975Z,1.90
2023-01-21T21:11:26.305Z,2.00
2023-01-21T21:13:53.578Z,2.00
2023-01-21T21:16:31.757Z,1.90
2023-01-21T21:19:01.283Z,2.00
2023-01-21T21:21:31.066Z,1.90
2023-01-21T21:23:58.348Z,1.90
2023-01-21T21:26:29.087Z,2.00
2023-01-21T21:28:57.807Z,2.00
2023-01-21T21:31:27.833Z,2.00
2023-01-21T21:33:57.330Z,1.90
2023-01-21T21:36:24.981Z,1.90
2023-01-21T21:38:55.725Z,1.80
2023-01-21T21:41:43.251Z,1.90
2023-01-21T21:44:11.981Z,1.90
2023-01-21T21:46:58.282Z,2.00
2023-01-21T21:49:28.313Z,2.20
2023-01-21T21:52:00.125Z,2.30
2023-01-21T21:54:27.523Z,2.40
2023-01-21T21:56:55.161Z,2.20
2023-01-21T21:59:24.979Z,2.20
2023-01-21T22:01:54.469Z,2.10
2023-01-21T22:04:24.178Z,2.00
2023-01-21T22:06:51.695Z,2.10
2023-01-21T22:09:19.256Z,2.10
2023-01-21T22:11:48.688Z,2.10
2023-01-21T22:14:18.466Z,2.10
2023-01-21T22:16:45.943Z,2.10
2023-01-21T22:19:13.355Z,2.00
2023-01-21T22:21:40.696Z,2.00
2023-01-21T22:24:08.290Z,1.90
2023-01-21T22:26:36.077Z,2.00
2023-01-21T22:29:09.145Z,2.20
2023-01-21T22:31:36.523Z,2.20
2023-01-21T22:34:03.866Z,2.20
2023-01-21T22:36:33.630Z,2.20
2023-01-21T22:39:01.087Z,2.10
2023-01-21T22:41:33.855Z,2.00
2023-01-21T22:44:03.277Z,1.80
2023-01-21T22:46:34.120Z,1.80
2023-01-21T22:49:06.736Z,1.60
2023-01-21T22:51:39.060Z,1.70
2023-01-21T22:54:08.918Z,1.70
2023-01-21T22:56:50.857Z,1.70
2023-01-21T22:59:19.269Z,1.60
2023-01-21T23:01:51.518Z,1.60
2023-01-21T23:04:18.919Z,1.50
2023-01-21T23:06:51.102Z,1.60
2023-01-21T23:09:18.412Z,1.60
2023-01-21T23:11:45.698Z,1.60
2023-01-21T23:14:17.959Z,1.60
2023-01-21T23:16:48.290Z,1.70
2023-01-21T23:19:19.966Z,1.70
2023-01-21T23:21:49.353Z,1.70
2023-01-21T23:24:16.658Z,1.60
2023-01-21T23:26:46.369Z,1.60
2023-01-21T23:29:15.819Z,1.50
2023-01-21T23:31:43.350Z,1.50
2023-01-21T23:34:14.288Z,1.40
2023-01-21T23:36:41.526Z,1.40
2023-01-21T23:39:08.921Z,1.50
2023-01-21T23:41:36.210Z,1.50
2023-01-21T23:44:04.147Z,1.70
2023-01-21T23:46:31.449Z,1.80
2023-01-21T23:49:01.258Z,1.90
2023-01-21T23:51:28.646Z,2.00
2023-01-21T23:53:58.845Z,2.00
2023-01-21T23:56:26.647Z,1.90
2023-01-21T23:58:54.396Z,1.90
